Time;durP1;ratioP1;P1;durP2;ratioP2;P2;SDS_P1;SDS_P2;PMS_P1;PMS_P2;Temp;Humidity;BMP_temperature;BMP_pressure;BME280_temperature;BME280_humidity;BME280_pressure;Samples;Min_cycle;Max_cycle;Signal;HPM_P1;HPM_P2
2021/09/24 00:01:24;;;;;;;17.42;9.40;;;;;;;15.47;80.11;101506.75;5053288;28;20487;-59
2021/09/24 00:03:51;;;;;;;14.30;9.45;;;;;;;15.49;80.98;101507.25;5054613;28;20053;-57
2021/09/24 00:06:19;;;;;;;13.55;8.45;;;;;;;15.35;80.54;101514.88;5054828;28;20056;-55
2021/09/24 00:08:46;;;;;;;14.55;9.18;;;;;;;15.13;82.39;101512.22;5053247;28;20045;-57
2021/09/24 00:11:14;;;;;;;15.88;8.65;;;;;;;15.20;81.82;101512.56;5054679;28;20056;-58
2021/09/24 00:13:42;;;;;;;13.48;8.40;;;;;;;15.42;81.51;101511.63;5054252;28;20060;-59
2021/09/24 00:16:10;;;;;;;13.05;8.73;;;;;;;15.42;80.47;101508.84;5053670;28;20055;-65
2021/09/24 00:18:37;;;;;;;18.42;8.85;;;;;;;15.45;80.64;101503.47;5053277;28;20060;-65
2021/09/24 00:21:04;;;;;;;13.25;8.27;;;;;;;15.66;79.29;101504.44;5054891;28;20048;-64
2021/09/24 00:23:32;;;;;;;11.77;8.23;;;;;;;15.05;82.30;101501.94;5039065;28;20072;-65
2021/09/24 00:25:59;;;;;;;12.02;9.13;;;;;;;15.01;82.81;101495.41;5035055;28;20060;-65
2021/09/24 00:28:26;;;;;;;11.85;9.02;;;;;;;15.02;83.99;101504.53;5034105;28;20608;-66
2021/09/24 00:30:54;;;;;;;13.55;9.20;;;;;;;14.68;84.76;101502.50;5034520;28;20056;-65
2021/09/24 00:33:21;;;;;;;17.38;9.23;;;;;;;14.60;86.22;101511.63;5034760;28;20050;-59
2021/09/24 00:35:48;;;;;;;15.60;9.60;;;;;;;14.39;87.42;101497.53;5016277;28;20053;-60
2021/09/24 00:38:16;;;;;;;18.90;9.25;;;;;;;14.55;87.27;101498.72;5035201;28;20064;-59
2021/09/24 00:40:43;;;;;;;14.98;10.27;;;;;;;14.60;86.86;101501.34;5053834;28;20049;-56
2021/09/24 00:43:10;;;;;;;24.80;12.82;;;;;;;14.22;89.47;101493.81;5055851;28;20118;-59
2021/09/24 00:45:38;;;;;;;21.88;13.93;;;;;;;14.36;89.21;101494.56;5058575;28;20052;-55
2021/09/24 00:48:05;;;;;;;26.65;16.85;;;;;;;14.36;89.44;101491.81;5057339;28;20048;-65
2021/09/24 00:50:32;;;;;;;23.60;16.90;;;;;;;14.09;91.33;101490.00;5058354;28;20064;-66
2021/09/24 00:53:00;;;;;;;25.63;16.67;;;;;;;13.92;92.39;101487.16;5058465;28;20060;-59
2021/09/24 00:55:27;;;;;;;24.27;16.90;;;;;;;13.74;94.53;101487.38;5056878;28;20535;-66
2021/09/24 00:57:55;;;;;;;24.15;16.23;;;;;;;13.90;94.31;101478.34;5056686;28;20053;-65
2021/09/24 01:00:22;;;;;;;25.40;16.73;;;;;;;14.19;93.86;101475.06;5057120;28;20427;-57
2021/09/24 01:02:50;;;;;;;26.45;16.88;;;;;;;13.98;93.99;101472.00;5058150;28;20048;-57
2021/09/24 01:05:18;;;;;;;25.73;16.42;;;;;;;13.95;94.46;101472.66;5058557;28;20071;-65
2021/09/24 01:07:45;;;;;;;25.35;16.00;;;;;;;14.15;93.82;101461.03;5057356;28;20057;-58
2021/09/24 01:10:15;;;;;;;24.33;15.25;;;;;;;14.16;93.02;101459.91;5058663;28;20053;-58
2021/09/24 01:12:43;;;;;;;26.58;15.63;;;;;;;14.18;93.81;101460.41;5057748;28;20049;-65
2021/09/24 01:15:13;;;;;;;24.50;16.35;;;;;;;14.09;94.33;101455.94;5056545;28;20057;-64
2021/09/24 01:17:41;;;;;;;26.30;15.70;;;;;;;14.25;93.59;101463.53;5057436;28;20060;-66
2021/09/24 01:20:10;;;;;;;24.52;14.80;;;;;;;14.21;94.01;101462.50;5058329;28;20518;-66
2021/09/24 01:22:39;;;;;;;17.50;11.93;;;;;;;14.55;93.36;101464.63;5056544;28;20052;-62
2021/09/24 01:25:07;;;;;;;22.90;13.18;;;;;;;14.44;93.05;101468.84;5028128;28;20046;-59
2021/09/24 01:27:35;;;;;;;22.30;13.05;;;;;;;14.35;93.66;101471.56;5017702;28;20621;-55
2021/09/24 01:30:03;;;;;;;21.58;12.80;;;;;;;14.34;94.25;101467.19;5018054;28;20057;-57
2021/09/24 01:32:30;;;;;;;18.05;12.20;;;;;;;14.24;95.99;101463.84;5018648;28;20050;-58
2021/09/24 01:35:03;;;;;;;18.73;11.57;;;;;;;15.04;91.50;101461.47;5016542;28;20084;-57
2021/09/24 01:37:31;;;;;;;16.17;10.05;;;;;;;14.54;91.65;101465.75;5018366;28;20056;-57
2021/09/24 01:39:58;;;;;;;15.60;10.18;;;;;;;14.21;95.97;101464.50;5041879;28;20053;-61
2021/09/24 01:42:26;;;;;;;19.25;9.40;;;;;;;14.96;92.78;101451.16;5057662;28;20076;-58
2021/09/24 01:44:53;;;;;;;13.23;8.25;;;;;;;14.97;90.73;101454.78;5055718;28;20057;-58
2021/09/24 01:47:20;;;;;;;12.98;8.07;;;;;;;14.85;91.17;101449.88;5057364;28;20072;-65
2021/09/24 01:49:48;;;;;;;17.83;9.32;;;;;;;14.62;92.90;101451.13;5056882;28;20533;-65
2021/09/24 01:52:15;;;;;;;15.27;9.15;;;;;;;14.40;95.30;101449.25;5057350;28;20060;-65
2021/09/24 01:54:42;;;;;;;17.08;9.38;;;;;;;14.82;93.88;101456.03;5054721;28;20052;-65
2021/09/24 01:57:11;;;;;;;16.50;9.93;;;;;;;14.73;93.63;101457.19;5055449;28;20057;-65
2021/09/24 01:59:39;;;;;;;14.35;9.65;;;;;;;14.77;93.65;101456.19;5057157;28;20396;-65
2021/09/24 02:02:06;;;;;;;18.73;10.88;;;;;;;14.61;94.09;101458.63;5055485;28;20060;-66
2021/09/24 02:04:34;;;;;;;15.68;10.07;;;;;;;14.42;95.00;101462.78;5057335;28;20052;-65
2021/09/24 02:07:01;;;;;;;18.98;11.75;;;;;;;14.31;96.98;101470.56;5056818;28;20056;-65
2021/09/24 02:09:28;;;;;;;20.42;10.95;;;;;;;14.51;96.76;101470.00;5055996;28;20357;-66
2021/09/24 02:11:55;;;;;;;20.13;10.85;;;;;;;14.74;95.32;101467.94;5056044;28;20053;-66
2021/09/24 02:14:23;;;;;;;16.52;11.35;;;;;;;14.36;96.25;101477.94;5057334;28;20045;-58
2021/09/24 02:16:50;;;;;;;15.25;10.75;;;;;;;14.69;95.29;101465.34;5054708;28;20053;-59
2021/09/24 02:19:17;;;;;;;20.27;11.10;;;;;;;14.68;95.24;101465.66;5056845;28;20060;-59
2021/09/24 02:21:44;;;;;;;18.60;12.45;;;;;;;14.45;96.48;101460.19;5038379;28;20072;-61
2021/09/24 02:24:12;;;;;;;19.10;11.88;;;;;;;14.52;96.77;101462.50;5048943;28;20054;-58
2021/09/24 02:26:39;;;;;;;18.48;11.32;;;;;;;14.66;95.66;101458.47;5034317;28;20049;-55
2021/09/24 02:29:12;;;;;;;21.40;11.07;;;;;;;14.50;96.92;101460.06;5035483;28;20509;-56
2021/09/24 02:31:40;;;;;;;19.10;11.70;;;;;;;14.50;97.71;101456.47;5036147;28;20065;-58
2021/09/24 02:34:09;;;;;;;19.10;10.88;;;;;;;14.69;96.84;101454.25;5035208;28;20041;-59
2021/09/24 02:36:37;;;;;;;18.65;11.00;;;;;;;14.94;93.13;101455.44;5036911;28;20060;-58
2021/09/24 02:39:06;;;;;;;18.17;10.38;;;;;;;14.83;93.95;101456.88;5039801;28;20416;-58
2021/09/24 02:41:33;;;;;;;16.88;11.32;;;;;;;15.00;93.38;101462.44;5056780;28;20049;-58
2021/09/24 02:44:01;;;;;;;22.65;11.20;;;;;;;15.15;92.26;101457.22;5055827;28;20073;-58
2021/09/24 02:46:28;;;;;;;18.10;10.77;;;;;;;15.10;92.29;101451.84;5056403;28;20049;-59
2021/09/24 02:48:55;;;;;;;19.48;10.88;;;;;;;15.31;91.58;101450.03;5056051;28;20057;-57
2021/09/24 02:51:23;;;;;;;17.83;9.95;;;;;;;15.18;91.02;101448.25;5056095;28;20045;-59
2021/09/24 02:53:50;;;;;;;17.17;10.73;;;;;;;14.68;94.19;101447.03;5056051;28;20369;-58
2021/09/24 02:56:17;;;;;;;16.35;10.10;;;;;;;14.96;94.60;101451.16;5056180;28;20048;-56
2021/09/24 02:58:45;;;;;;;17.88;9.90;;;;;;;15.43;91.96;101455.00;5055632;28;20049;-59
2021/09/24 03:01:12;;;;;;;14.05;8.65;;;;;;;15.60;89.48;101452.97;5054676;28;20052;-57
2021/09/24 03:03:40;;;;;;;16.65;8.15;;;;;;;15.88;87.09;101441.50;5056139;28;20404;-58
2021/09/24 03:06:08;;;;;;;14.18;8.00;;;;;;;15.91;87.13;101447.22;5053589;28;20527;-57
2021/09/24 03:08:35;;;;;;;11.32;7.22;;;;;;;15.89;86.98;101438.38;5056074;28;20064;-59
2021/09/24 03:11:02;;;;;;;12.43;7.93;;;;;;;16.26;84.72;101447.91;5055546;28;20049;-65
2021/09/24 03:13:30;;;;;;;13.68;8.45;;;;;;;15.62;87.00;101444.34;5054330;28;20064;-57
2021/09/24 03:15:58;;;;;;;17.30;8.73;;;;;;;15.75;88.57;101437.75;5055169;28;20053;-65
2021/09/24 03:18:26;;;;;;;12.75;8.50;;;;;;;15.93;87.65;101442.13;5054249;28;20064;-59
2021/09/24 03:20:53;;;;;;;14.52;8.35;;;;;;;15.79;87.79;101433.19;5054167;28;20504;-59
2021/09/24 03:23:21;;;;;;;14.57;8.23;;;;;;;15.72;88.67;101433.69;5055666;28;20488;-58
2021/09/24 03:25:48;;;;;;;13.82;7.35;;;;;;;15.60;89.19;101441.06;5045407;28;20056;-65
2021/09/24 03:28:16;;;;;;;12.68;7.38;;;;;;;15.73;88.86;101431.72;5035143;28;20057;-64
2021/09/24 03:30:43;;;;;;;12.15;7.72;;;;;;;15.75;89.04;101427.47;5017940;28;20046;-65
2021/09/24 03:33:10;;;;;;;13.55;7.70;;;;;;;15.90;88.52;101428.88;5035232;28;20053;-58
2021/09/24 03:35:38;;;;;;;13.02;7.32;;;;;;;16.10;87.59;101424.56;5017835;28;20049;-60
2021/09/24 03:38:05;;;;;;;11.35;7.70;;;;;;;16.11;87.11;101429.00;5017274;28;20053;-59
2021/09/24 03:40:32;;;;;;;15.80;8.20;;;;;;;15.79;88.41;101419.31;5052056;28;20059;-58
2021/09/24 03:43:00;;;;;;;13.30;8.15;;;;;;;15.76;89.65;101422.72;5054701;28;20056;-64
2021/09/24 03:45:28;;;;;;;16.58;8.98;;;;;;;15.97;88.81;101420.06;5055247;28;20036;-65
2021/09/24 03:47:55;;;;;;;13.95;8.43;;;;;;;15.77;89.47;101424.38;5054997;28;20060;-66
2021/09/24 03:50:24;;;;;;;13.13;8.63;;;;;;;15.96;88.90;101421.19;5053629;28;20049;-65
2021/09/24 03:52:52;;;;;;;14.85;8.00;;;;;;;16.10;87.93;101419.84;5054960;28;20053;-58
2021/09/24 03:55:20;;;;;;;14.75;8.43;;;;;;;16.22;87.18;101421.91;5054866;28;20132;-57
2021/09/24 03:57:51;;;;;;;13.20;7.57;;;;;;;16.37;85.96;101411.03;5054339;28;20529;-58
2021/09/24 04:00:18;;;;;;;13.82;8.15;;;;;;;16.38;85.77;101415.47;5054774;28;20060;-67
2021/09/24 04:02:46;;;;;;;14.30;8.20;;;;;;;16.48;85.50;101403.97;5054908;28;20071;-66
2021/09/24 04:05:13;;;;;;;13.55;7.95;;;;;;;16.53;85.17;101408.50;5053343;28;20045;-66
2021/09/24 04:07:41;;;;;;;15.75;8.10;;;;;;;16.54;84.07;101399.03;5053666;28;20049;-65
2021/09/24 04:10:08;;;;;;;12.57;7.75;;;;;;;16.46;84.82;101406.28;5054218;28;20053;-65
2021/09/24 04:12:36;;;;;;;11.27;7.95;;;;;;;16.31;85.59;101403.22;5054332;28;20076;-65
2021/09/24 04:15:04;;;;;;;14.20;7.55;;;;;;;16.56;85.05;101405.09;5052914;28;20432;-66
2021/09/24 04:17:32;;;;;;;15.15;7.57;;;;;;;16.51;84.53;101410.84;5053790;28;20060;-58
2021/09/24 04:19:59;;;;;;;13.15;7.43;;;;;;;16.52;84.59;101406.91;5052617;28;20056;-64
2021/09/24 04:22:27;;;;;;;13.50;7.82;;;;;;;16.38;85.41;101409.91;5054637;28;20056;-65
2021/09/24 04:24:54;;;;;;;10.73;7.38;;;;;;;16.47;85.23;101410.69;5054376;28;20059;-65
2021/09/24 04:27:21;;;;;;;14.20;8.27;;;;;;;16.66;84.21;101411.06;5031883;28;20206;-65
2021/09/24 04:29:48;;;;;;;19.25;7.63;;;;;;;16.51;84.83;101408.84;5032883;28;20064;-65
2021/09/24 04:32:16;;;;;;;11.40;7.57;;;;;;;16.63;84.42;101408.94;5034142;28;20057;-65
2021/09/24 04:34:43;;;;;;;23.20;7.68;;;;;;;16.72;83.51;101417.22;5034545;28;20052;-65
2021/09/24 04:37:10;;;;;;;12.57;7.25;;;;;;;16.85;83.30;101405.84;5034208;28;20054;-65
2021/09/24 04:39:38;;;;;;;13.07;7.53;;;;;;;16.78;82.87;101411.16;5044405;28;20048;-59
2021/09/24 04:42:05;;;;;;;16.33;8.30;;;;;;;16.73;83.59;101404.97;5053314;28;20045;-59
2021/09/24 04:44:32;;;;;;;12.05;7.85;;;;;;;16.75;83.38;101408.22;5054788;28;20045;-64
2021/09/24 04:46:59;;;;;;;12.77;7.68;;;;;;;16.62;83.91;101414.84;5052837;28;20052;-65
2021/09/24 04:49:27;;;;;;;15.18;7.90;;;;;;;16.84;83.35;101415.34;5053001;28;20052;-65
2021/09/24 04:51:54;;;;;;;11.57;7.70;;;;;;;16.92;82.74;101422.00;5054073;28;20391;-66
2021/09/24 04:54:21;;;;;;;15.45;7.68;;;;;;;16.66;83.50;101415.81;5054345;28;20041;-58
2021/09/24 04:56:48;;;;;;;11.63;7.07;;;;;;;16.81;82.84;101410.47;5053957;28;20044;-65
2021/09/24 04:59:16;;;;;;;12.55;7.10;;;;;;;16.83;82.92;101408.16;5052902;28;20045;-58
2021/09/24 05:01:43;;;;;;;11.35;6.68;;;;;;;17.02;82.16;101410.47;5052683;28;20064;-59
2021/09/24 05:04:10;;;;;;;11.27;6.55;;;;;;;17.04;82.15;101410.13;5053471;28;20057;-64
2021/09/24 05:06:38;;;;;;;13.05;6.90;;;;;;;17.10;81.78;101414.34;5054562;28;20057;-65
2021/09/24 05:09:05;;;;;;;13.02;6.13;;;;;;;17.10;81.54;101412.38;5035382;28;20049;-65
2021/09/24 05:11:32;;;;;;;10.90;5.93;;;;;;;16.94;82.33;101410.53;5054177;28;20053;-65
2021/09/24 05:13:59;;;;;;;10.48;6.50;;;;;;;17.03;81.94;101409.31;5051638;28;20068;-59
2021/09/24 05:16:27;;;;;;;12.02;6.18;;;;;;;16.77;82.96;101403.94;5054323;28;20049;-59
2021/09/24 05:18:54;;;;;;;10.68;5.28;;;;;;;16.76;82.63;101407.06;5052092;28;20057;-58
2021/09/24 05:21:21;;;;;;;7.80;5.40;;;;;;;16.71;83.29;101396.13;5054249;28;20037;-59
2021/09/24 05:23:49;;;;;;;12.27;5.32;;;;;;;16.87;82.65;101397.16;5019429;28;20427;-58
2021/09/24 05:26:20;;;;;;;14.32;6.20;;;;;;;16.86;82.64;101396.34;5051607;28;20484;-58
2021/09/24 05:28:47;;;;;;;13.02;5.80;;;;;;;16.76;83.15;101401.50;5031080;28;20072;-58
2021/09/24 05:31:15;;;;;;;12.55;5.70;;;;;;;16.80;82.86;101406.06;5037252;28;20057;-59
2021/09/24 05:33:42;;;;;;;9.07;5.60;;;;;;;16.53;83.85;101403.78;5038187;28;20050;-57
2021/09/24 05:36:11;;;;;;;14.95;6.30;;;;;;;16.71;83.83;101405.31;5037517;28;20041;-60
2021/09/24 05:38:39;;;;;;;9.80;6.25;;;;;;;16.67;83.52;101397.94;5039882;28;20057;-58
2021/09/24 05:41:07;;;;;;;13.40;5.90;;;;;;;16.56;84.10;101399.53;5057090;28;20049;-61
2021/09/24 05:43:35;;;;;;;9.23;6.05;;;;;;;16.53;84.09;101395.44;5056222;28;20049;-58
2021/09/24 05:46:03;;;;;;;12.02;6.50;;;;;;;16.57;84.80;101393.63;5057539;28;20045;-59
2021/09/24 05:48:31;;;;;;;14.85;7.65;;;;;;;16.72;83.53;101397.75;5057521;28;20048;-59
2021/09/24 05:50:58;;;;;;;11.35;6.72;;;;;;;16.83;83.14;101382.28;5057062;28;20045;-56
2021/09/24 05:53:26;;;;;;;17.20;7.40;;;;;;;17.04;82.29;101394.25;5057105;28;20057;-59
2021/09/24 05:55:55;;;;;;;15.27;8.02;;;;;;;16.87;82.56;101391.59;5057163;28;20041;-59
2021/09/24 05:58:23;;;;;;;13.13;7.22;;;;;;;16.68;83.15;101392.03;5057213;28;20049;-57
2021/09/24 06:00:50;;;;;;;13.07;7.63;;;;;;;16.76;82.96;101404.28;5057562;28;20060;-59
2021/09/24 06:03:17;;;;;;;14.82;8.38;;;;;;;16.34;85.23;101405.31;5057049;28;20057;-59
2021/09/24 06:05:45;;;;;;;16.30;8.60;;;;;;;16.39;85.59;101402.34;5057292;28;20056;-57
2021/09/24 06:08:12;;;;;;;18.35;9.50;;;;;;;16.56;84.48;101403.09;5056811;28;20064;-59
2021/09/24 06:10:40;;;;;;;22.92;9.13;;;;;;;16.82;83.27;101412.06;5057578;28;20057;-58
2021/09/24 06:13:08;;;;;;;19.38;9.45;;;;;;;16.67;83.71;101409.06;5056414;28;20056;-57
2021/09/24 06:15:36;;;;;;;19.38;10.30;;;;;;;16.67;83.51;101406.28;5048935;28;20049;-55
2021/09/24 06:18:04;;;;;;;16.33;9.68;;;;;;;16.81;82.68;101413.25;5032306;28;20057;-57
2021/09/24 06:20:32;;;;;;;16.45;8.75;;;;;;;16.93;82.38;101409.72;5036942;28;20045;-56
2021/09/24 06:22:59;;;;;;;23.70;10.65;;;;;;;16.89;82.61;101414.34;5036471;28;20087;-57
2021/09/24 06:25:26;;;;;;;17.27;10.77;;;;;;;17.11;81.74;101404.81;5035883;28;20057;-59
2021/09/24 06:27:54;;;;;;;19.13;10.70;;;;;;;16.93;82.18;101398.56;5036591;28;20464;-57
2021/09/24 06:30:22;;;;;;;17.92;10.90;;;;;;;16.94;82.32;101397.44;5036297;28;20064;-58
2021/09/24 06:32:50;;;;;;;17.60;10.80;;;;;;;16.84;82.39;101407.00;5034789;28;20061;-60
2021/09/24 06:35:17;;;;;;;19.05;11.38;;;;;;;16.85;83.01;101402.25;5035126;28;20049;-58
2021/09/24 06:37:45;;;;;;;22.05;11.82;;;;;;;16.89;83.02;101411.56;5036819;28;20064;-58
2021/09/24 06:40:13;;;;;;;19.55;11.18;;;;;;;17.17;81.62;101401.50;5046870;28;20045;-58
2021/09/24 06:42:41;;;;;;;19.55;11.00;;;;;;;16.88;82.64;101407.13;5036636;28;20049;-59
2021/09/24 06:45:11;;;;;;;19.23;11.52;;;;;;;16.92;82.55;101405.31;5034469;28;20060;-58
2021/09/24 06:47:39;;;;;;;;;;;;;;;17.13;81.97;101403.34;5037363;28;20046;-58
2021/09/24 06:50:06;;;;;;;22.20;13.45;;;;;;;17.12;81.43;101404.47;5017809;28;19996;-58
2021/09/24 06:52:34;;;;;;;25.40;13.32;;;;;;;17.06;82.08;101403.06;5034965;28;20489;-59
2021/09/24 06:55:01;;;;;;;20.83;11.93;;;;;;;17.38;79.87;101398.69;5036103;28;20053;-59
2021/09/24 06:57:28;;;;;;;27.30;11.50;;;;;;;17.14;80.96;101406.94;5017970;28;20065;-58
2021/09/24 06:59:56;;;;;;;23.08;11.52;;;;;;;17.21;81.08;101408.00;5035974;28;20045;-61
2021/09/24 07:02:23;;;;;;;20.65;11.38;;;;;;;17.13;81.21;101406.13;5035833;28;20054;-59
2021/09/24 07:04:51;;;;;;;20.27;11.00;;;;;;;16.92;82.37;101405.31;5036172;28;20053;-58
2021/09/24 07:07:18;;;;;;;19.50;9.25;;;;;;;17.19;81.34;101404.75;5034470;28;20042;-59
2021/09/24 07:09:46;;;;;;;17.85;10.20;;;;;;;17.29;80.56;101403.53;5036252;28;20052;-59
2021/09/24 07:12:13;;;;;;;21.15;9.95;;;;;;;17.08;80.95;101406.34;5034972;28;20209;-58
2021/09/24 07:14:40;;;;;;;16.65;10.00;;;;;;;17.34;80.07;101406.91;5036439;28;20049;-59
2021/09/24 07:17:09;;;;;;;18.48;10.15;;;;;;;17.43;79.71;101407.66;5035420;28;20045;-65
2021/09/24 07:19:36;;;;;;;20.27;11.02;;;;;;;17.47;79.35;101397.47;5034523;28;20045;-66
2021/09/24 07:22:03;;;;;;;20.65;10.48;;;;;;;17.62;77.80;101399.63;5034319;28;20519;-67
2021/09/24 07:24:30;;;;;;;17.77;10.77;;;;;;;17.53;78.31;101403.63;5034650;28;20045;-65
2021/09/24 07:26:58;;;;;;;20.02;10.95;;;;;;;17.48;78.96;101401.91;5035577;28;20050;-66
2021/09/24 07:29:25;;;;;;;26.70;11.10;;;;;;;17.61;78.18;101411.91;5018504;28;20045;-59
2021/09/24 07:31:53;;;;;;;20.27;11.57;;;;;;;17.58;78.84;101404.25;5033610;28;20061;-58
2021/09/24 07:34:20;;;;;;;27.73;10.30;;;;;;;17.66;78.36;101403.31;5035827;28;20053;-60
2021/09/24 07:36:47;;;;;;;23.48;16.25;;;;;;;17.52;78.75;101396.44;5034723;28;20054;-65
2021/09/24 07:39:15;;;;;;;29.20;21.55;;;;;;;17.59;78.77;101399.50;5042144;28;20052;-65
2021/09/24 07:41:42;;;;;;;20.95;12.07;;;;;;;17.58;78.71;101389.50;5054828;28;20053;-65
2021/09/24 07:44:09;;;;;;;27.95;17.42;;;;;;;17.66;78.14;101391.38;5052939;28;20058;-66
2021/09/24 07:46:37;;;;;;;17.63;12.00;;;;;;;17.62;78.20;101382.91;5055509;28;20056;-60
2021/09/24 07:49:05;;;;;;;18.58;11.77;;;;;;;17.69;77.50;101388.72;5054962;28;20711;-62
2021/09/24 07:51:32;;;;;;;16.58;11.27;;;;;;;17.65;77.22;101387.78;5054219;28;20059;-59
2021/09/24 07:53:59;;;;;;;24.02;12.05;;;;;;;17.70;77.14;101383.94;5053890;28;20460;-60
2021/09/24 07:56:27;;;;;;;16.73;11.30;;;;;;;17.64;77.37;101391.72;5053352;28;20060;-67
2021/09/24 07:58:55;;;;;;;18.30;11.90;;;;;;;17.63;77.57;101392.88;5055290;28;20124;-60
2021/09/24 08:01:25;;;;;;;18.25;11.18;;;;;;;17.84;76.53;101392.81;5054704;28;20400;-58
2021/09/24 08:03:52;;;;;;;19.43;10.23;;;;;;;18.16;75.80;101393.88;5055173;28;20057;-66
2021/09/24 08:06:20;;;;;;;19.35;11.43;;;;;;;18.08;75.41;101403.19;5054988;28;20075;-60
2021/09/24 08:08:47;;;;;;;23.65;16.52;;;;;;;17.99;75.24;101406.88;5055514;28;20060;-65
2021/09/24 08:11:15;;;;;;;32.67;24.77;;;;;;;18.03;75.09;101400.63;5052731;28;20056;-66
2021/09/24 08:13:43;;;;;;;20.90;11.73;;;;;;;18.21;74.80;101405.63;5054982;28;20049;-67
2021/09/24 08:16:11;;;;;;;20.52;13.43;;;;;;;18.48;72.93;101410.53;5039883;28;20057;-60
2021/09/24 08:18:38;;;;;;;27.20;13.40;;;;;;;18.47;71.81;101400.53;5030734;28;20058;-60
2021/09/24 08:21:06;;;;;;;16.67;11.23;;;;;;;18.55;71.01;101410.75;5014813;28;20148;-58
2021/09/24 08:23:34;;;;;;;15.95;10.15;;;;;;;18.59;72.18;101416.44;5013320;28;20420;-60
2021/09/24 08:26:01;;;;;;;20.38;10.63;;;;;;;18.50;72.56;101421.34;5014601;28;20053;-59
2021/09/24 08:28:28;;;;;;;20.88;10.43;;;;;;;18.49;72.73;101416.94;5013718;28;20054;-60
2021/09/24 08:30:55;;;;;;;17.65;9.80;;;;;;;18.58;72.05;101412.88;5012829;28;20064;-57
2021/09/24 08:33:23;;;;;;;16.05;9.80;;;;;;;18.61;71.61;101412.16;5014610;28;20054;-59
2021/09/24 08:35:50;;;;;;;15.40;9.32;;;;;;;18.45;72.73;101421.56;5015236;28;20069;-59
2021/09/24 08:38:17;;;;;;;16.05;9.30;;;;;;;18.77;71.09;101415.03;5014709;28;20053;-59
2021/09/24 08:40:45;;;;;;;16.38;8.23;;;;;;;18.93;69.80;101411.16;5052425;28;20053;-58
2021/09/24 08:43:13;;;;;;;16.92;9.50;;;;;;;18.97;69.15;101409.28;5053851;28;20044;-60
2021/09/24 08:45:41;;;;;;;14.75;8.93;;;;;;;19.05;68.76;101411.16;5054813;28;20045;-60
2021/09/24 08:48:12;;;;;;;16.60;9.00;;;;;;;19.32;67.59;101417.94;5053884;28;20045;-61
2021/09/24 08:50:40;;;;;;;17.05;8.73;;;;;;;19.20;67.66;101414.34;5054721;28;20052;-60
2021/09/24 08:53:09;;;;;;;14.00;8.88;;;;;;;19.24;67.85;101409.69;5054156;28;20045;-59
2021/09/24 08:55:36;;;;;;;13.75;8.57;;;;;;;19.28;67.98;101411.41;5053420;28;20045;-59
2021/09/24 08:58:04;;;;;;;13.05;7.60;;;;;;;19.44;66.73;101415.09;5054091;28;20037;-59
2021/09/24 09:00:32;;;;;;;17.05;8.65;;;;;;;19.23;67.75;101419.22;5053080;28;20056;-58
2021/09/24 09:03:10;;;;;;;17.48;10.27;;;;;;;18.73;68.62;101414.09;5052945;28;20064;-60
2021/09/24 09:05:52;;;;;;;18.98;9.32;;;;;;;18.64;69.58;101416.22;5058100;28;20431;-58
2021/09/24 09:08:23;;;;;;;16.45;9.10;;;;;;;18.73;69.83;101417.72;5058150;28;20051;-59
2021/09/24 09:10:59;;;;;;;19.35;9.48;;;;;;;18.79;70.49;101419.09;5057905;28;20063;-57
2021/09/24 09:13:33;;;;;;;14.30;8.82;;;;;;;19.00;68.68;101410.56;5056622;28;20071;-59
2021/09/24 09:16:04;;;;;;;12.32;8.15;;;;;;;19.00;68.01;101418.97;5053964;28;20113;-60
2021/09/24 09:18:35;;;;;;;20.38;9.63;;;;;;;19.26;66.94;101416.53;5034790;28;20432;-59
2021/09/24 09:21:05;;;;;;;16.42;8.90;;;;;;;18.88;68.11;101421.78;5037580;28;20049;-59
2021/09/24 09:23:35;;;;;;;14.85;9.00;;;;;;;18.80;68.43;101420.72;5036830;28;20045;-60
2021/09/24 09:26:08;;;;;;;12.65;8.73;;;;;;;19.28;66.86;101413.41;5036352;28;20053;-59
2021/09/24 09:28:38;;;;;;;16.70;8.73;;;;;;;19.46;66.25;101418.34;5038187;28;20088;-60
2021/09/24 09:31:23;;;;;;;17.00;9.45;;;;;;;19.48;66.12;101416.00;5037197;28;20056;-59
2021/09/24 09:33:57;;;;;;;17.92;9.02;;;;;;;19.39;66.79;101415.34;5038228;28;20630;-58
2021/09/24 09:36:30;;;;;;;16.20;9.10;;;;;;;19.53;65.90;101412.94;5037561;28;20061;-62
2021/09/24 09:38:58;;;;;;;16.52;8.35;;;;;;;19.68;65.54;101414.97;5041249;28;20068;-59
2021/09/24 09:41:29;;;;;;;17.35;9.23;;;;;;;19.69;66.13;101411.00;5057038;28;20056;-59
2021/09/24 09:44:00;;;;;;;15.95;8.82;;;;;;;19.97;65.69;101399.75;5055316;28;20068;-60
2021/09/24 09:46:30;;;;;;;;;;;;;;;19.98;65.20;101402.19;5057597;28;20045;-60
2021/09/24 09:49:08;;;;;;;;;;;;;;;20.11;64.00;101395.34;5056635;28;19921;-60
2021/09/24 09:51:38;;;;;;;15.43;9.60;;;;;;;20.15;63.50;101401.03;5057039;28;19921;-60
2021/09/24 09:54:07;;;;;;;14.57;8.73;;;;;;;20.32;63.59;101392.31;5057392;28;20474;-58
2021/09/24 09:56:45;;;;;;;19.75;9.25;;;;;;;20.45;63.07;101393.81;5056083;28;20052;-58
2021/09/24 09:59:30;;;;;;;16.83;9.73;;;;;;;20.35;63.25;101401.94;5057181;28;20052;-59
2021/09/24 10:02:21;;;;;;;18.00;9.68;;;;;;;20.10;64.23;101399.31;5057151;28;20159;-59
2021/09/24 10:04:52;;;;;;;14.35;8.60;;;;;;;20.41;63.22;101392.09;5057185;28;20424;-60
2021/09/24 10:07:23;;;;;;;12.75;7.50;;;;;;;20.42;62.65;101388.94;5055882;28;20053;-60
2021/09/24 10:10:07;;;;;;;50.90;27.38;;;;;;;20.38;62.94;101395.66;5055149;28;20060;-61
2021/09/24 10:12:36;;;;;;;26.60;15.75;;;;;;;20.34;62.17;101392.75;5056700;28;20052;-59
2021/09/24 10:15:04;;;;;;;37.80;18.88;;;;;;;20.42;61.93;101396.53;5055729;28;20056;-60
2021/09/24 10:17:32;;;;;;;25.13;13.63;;;;;;;20.49;61.49;101397.50;5046741;28;20049;-60
2021/09/24 10:20:00;;;;;;;15.73;10.45;;;;;;;20.93;60.00;101389.72;5036613;28;20059;-60
2021/09/24 10:22:27;;;;;;;20.33;11.82;;;;;;;20.90;59.79;101387.66;5034894;28;20516;-60
2021/09/24 10:24:56;;;;;;;16.05;8.50;;;;;;;20.70;60.62;101391.59;5036272;28;20049;-61
2021/09/24 10:27:28;;;;;;;17.00;10.23;;;;;;;20.88;60.91;101387.22;5036889;28;20053;-61
2021/09/24 10:30:08;;;;;;;11.52;7.47;;;;;;;20.98;60.01;101389.44;5018896;28;20053;-60
2021/09/24 10:32:36;;;;;;;12.55;9.20;;;;;;;20.37;60.69;101388.41;5035651;28;20061;-62
2021/09/24 10:35:10;;;;;;;14.68;9.05;;;;;;;20.33;61.85;101388.31;5035188;28;20049;-59
2021/09/24 10:37:40;;;;;;;14.05;8.40;;;;;;;20.89;60.12;101386.84;5036732;28;20046;-59
2021/09/24 10:40:27;;;;;;;16.23;8.70;;;;;;;20.76;60.04;101388.16;5050303;28;20543;-61
2021/09/24 10:42:58;;;;;;;15.27;8.82;;;;;;;20.76;60.31;101385.38;5056145;28;20064;-62
2021/09/24 10:45:40;;;;;;;18.92;10.88;;;;;;;20.84;60.73;101387.13;5039446;28;20057;-60
2021/09/24 10:48:19;;;;;;;15.55;9.40;;;;;;;20.99;59.64;101391.09;5056670;28;20064;-60
2021/09/24 10:50:48;;;;;;;14.57;8.90;;;;;;;20.27;61.26;101386.16;5054988;28;20064;-67
2021/09/24 10:53:18;;;;;;;15.98;8.98;;;;;;;20.17;62.20;101375.53;5056233;28;20384;-67
2021/09/24 10:55:45;;;;;;;;;;;;;;;20.65;61.00;101375.91;5056655;28;20075;-59
2021/09/24 10:58:40;;;;;;;18.88;11.68;;;;;;;19.75;62.25;101370.44;5055829;28;19920;-59
2021/09/24 11:01:14;;;;;;;15.70;8.98;;;;;;;20.06;62.08;101364.88;5050550;28;20487;-65
2021/09/24 11:03:51;;;;;;;16.25;9.63;;;;;;;20.45;60.97;101370.63;5054589;28;20048;-65
2021/09/24 11:06:36;;;;;;;16.05;9.60;;;;;;;20.64;60.41;101362.28;5054993;28;20052;-63
2021/09/24 11:09:06;;;;;;;14.65;9.32;;;;;;;21.04;58.75;101360.00;5054492;28;20148;-67
2021/09/24 11:11:35;;;;;;;23.05;11.18;;;;;;;20.76;59.51;101356.53;5056002;28;20049;-60
2021/09/24 11:14:38;;;;;;;18.80;9.13;;;;;;;20.56;59.84;101355.69;5055712;28;20068;-60
2021/09/24 11:17:08;;;;;;;13.48;7.32;;;;;;;20.84;59.29;101353.53;5053237;28;20393;-68
2021/09/24 11:19:42;;;;;;;15.27;8.45;;;;;;;20.60;59.81;101353.78;5032444;28;20057;-62
2021/09/24 11:22:09;;;;;;;14.23;7.38;;;;;;;20.94;59.05;101344.53;5036247;28;20064;-67